Ty Lotus — DSNU7 — position and weather

sailwx.info

Track history (hours):
 
Tides and Currents Weather Stations Pressure Air Temp Water Temp Dewpoint Dewpoint Depression Visibility Wind Speed Wind Dir Waves Ship Positions

Ty Lotus

Last reported at 2014-Dec-18 16:24 UTC. Time now 2014-Dec-19 13:41 UTC.
Position N 35°14' E 119°53'.

Length 82 m; draft 5 m.

Type: Cargo ship. MMSI: 440324000.

Date/timePositionNaut miles runAvg speedWind from/ knotsBaromVisibWave heightAir tempDewpointWater temp
2014-Dec-18 16:24N 35°14' E 119°53'7 8.7
2014-Dec-18 15:33N 35°16' E 119°44'10 8.9
2014-Dec-18 14:28N 35°20' E 119°33'2 1.6
2014-Dec-18 13:29N 35°22' E 119°32'0 0.0
2014-Dec-18 11:17N 35°22' E 119°32'0 0.0
2014-Dec-18 10:11N 35°22' E 119°32'0 0.0
2014-Dec-18 09:05N 35°22' E 119°32'0 0.0
2014-Dec-18 08:29N 35°22' E 119°32'0 0.0
2014-Dec-18 07:23N 35°22' E 119°32'0 0.0
2014-Dec-18 06:05N 35°22' E 119°32'0 0.0
2014-Dec-18 05:29N 35°22' E 119°32'0 0.0
2014-Dec-18 04:11N 35°22' E 119°32'0 0.0
2014-Dec-18 03:29N 35°22' E 119°32'0 0.0
2014-Dec-18 02:29N 35°22' E 119°32'0 0.0
2014-Dec-18 01:29N 35°22' E 119°32'0 0.0
2014-Dec-18 00:23N 35°22' E 119°32'0 0.0
2014-Dec-17 23:23N 35°22' E 119°32'0 0.0
2014-Dec-17 22:17N 35°22' E 119°32'0 0.1
2014-Dec-17 21:33N 35°22' E 119°32'6 6.0
2014-Dec-17 20:33N 35°18' E 119°38'5 4.2
2014-Dec-17 19:24N 35°18' E 119°44'0 0.0
2014-Dec-17 18:30N 35°18' E 119°44'0 0.0
2014-Dec-17 17:30N 35°18' E 119°44'0 0.0
2014-Dec-17 16:30N 35°18' E 119°44'0 0.0
2014-Dec-17 14:12N 35°18' E 119°44'0 0.0
2014-Dec-17 12:31N 35°18' E 119°44'0 0.0
2014-Dec-17 10:24N 35°18' E 119°44'0 0.0
2014-Dec-17 09:13N 35°18' E 119°44'0 0.0
2014-Dec-17 06:13N 35°18' E 119°44'0 0.1
2014-Dec-17 05:07N 35°18' E 119°44'0 0.0
2014-Dec-17 04:31N 35°18' E 119°44'0 0.0
2014-Dec-17 03:31N 35°18' E 119°44'0 0.0
2014-Dec-17 02:25N 35°18' E 119°44'0 0.0
2014-Dec-16 11:25N 35°18' E 119°44'0 0.0
2014-Dec-16 10:25N 35°18' E 119°44'0 0.0
2014-Dec-16 09:25N 35°18' E 119°44'0 0.0
2014-Dec-16 08:31N 35°18' E 119°44'0 0.0
2014-Dec-16 07:18N 35°18' E 119°44'0 0.0
2014-Dec-16 05:24N 35°18' E 119°44'0 0.0
2014-Dec-16 02:30N 35°17' E 119°44'  
Track history (hours):
 
Tides and Currents Weather Stations Pressure Air Temp Water Temp Dewpoint Dewpoint Depression Visibility Wind Speed Wind Dir Waves Ship Positions

Ty Lotus

Last reported at 2014-Dec-18 16:24 UTC. Time now 2014-Dec-19 13:41 UTC.
Position N 35°14' E 119°53'.

Length 82 m; draft 5 m.

Type: Cargo ship. MMSI: 440324000.

Date/timePositionNaut miles runAvg speedWind from/ knotsBaromVisibWave heightAir tempDewpointWater temp
2014-Dec-18 16:24N 35°14' E 119°53'7 8.7
2014-Dec-18 15:33N 35°16' E 119°44'10 8.9
2014-Dec-18 14:28N 35°20' E 119°33'2 1.6
2014-Dec-18 13:29N 35°22' E 119°32'0 0.0
2014-Dec-18 11:17N 35°22' E 119°32'0 0.0
2014-Dec-18 10:11N 35°22' E 119°32'0 0.0
2014-Dec-18 09:05N 35°22' E 119°32'0 0.0
2014-Dec-18 08:29N 35°22' E 119°32'0 0.0
2014-Dec-18 07:23N 35°22' E 119°32'0 0.0
2014-Dec-18 06:05N 35°22' E 119°32'0 0.0
2014-Dec-18 05:29N 35°22' E 119°32'0 0.0
2014-Dec-18 04:11N 35°22' E 119°32'0 0.0
2014-Dec-18 03:29N 35°22' E 119°32'0 0.0
2014-Dec-18 02:29N 35°22' E 119°32'0 0.0
2014-Dec-18 01:29N 35°22' E 119°32'0 0.0
2014-Dec-18 00:23N 35°22' E 119°32'0 0.0
2014-Dec-17 23:23N 35°22' E 119°32'0 0.0
2014-Dec-17 22:17N 35°22' E 119°32'0 0.1
2014-Dec-17 21:33N 35°22' E 119°32'6 6.0
2014-Dec-17 20:33N 35°18' E 119°38'5 4.2
2014-Dec-17 19:24N 35°18' E 119°44'0 0.0
2014-Dec-17 18:30N 35°18' E 119°44'0 0.0
2014-Dec-17 17:30N 35°18' E 119°44'0 0.0
2014-Dec-17 16:30N 35°18' E 119°44'0 0.0
2014-Dec-17 14:12N 35°18' E 119°44'0 0.0
2014-Dec-17 12:31N 35°18' E 119°44'0 0.0
2014-Dec-17 10:24N 35°18' E 119°44'0 0.0
2014-Dec-17 09:13N 35°18' E 119°44'0 0.0
2014-Dec-17 06:13N 35°18' E 119°44'0 0.1
2014-Dec-17 05:07N 35°18' E 119°44'0 0.0
2014-Dec-17 04:31N 35°18' E 119°44'0 0.0
2014-Dec-17 03:31N 35°18' E 119°44'0 0.0
2014-Dec-17 02:25N 35°18' E 119°44'0 0.0
2014-Dec-16 11:25N 35°18' E 119°44'0 0.0
2014-Dec-16 10:25N 35°18' E 119°44'0 0.0
2014-Dec-16 09:25N 35°18' E 119°44'0 0.0
2014-Dec-16 08:31N 35°18' E 119°44'0 0.0
2014-Dec-16 07:18N 35°18' E 119°44'0 0.0
2014-Dec-16 05:24N 35°18' E 119°44'0 0.0
2014-Dec-16 02:30N 35°17' E 119°44'  

Dump ship's entire track history